Shin-oh Maru — JG5594 — position and weather

sailwx.info

Track history (hours):
 
Tides and Currents Weather Stations Pressure Air Temp Water Temp Dewpoint Dewpoint Depression Visibility Wind Speed Wind Dir Waves Ship Positions

Shin-oh Maru

Last reported at 2015-Jan-26 19:05 UTC. Time now 2015-Jan-27 12:26 UTC.
Position N 35°04' E 140°26'.

Length 161 m; draft 7 m.

Type: Ship (hazmat cat A). MMSI: 431100859.

Date/timePositionNaut miles runAvg speedWind from/ knotsBaromVisibWave heightAir tempDewpointWater temp
2015-Jan-26 19:05N 35°04' E 140°26'3120.5
2015-Jan-26 17:33N 34°50' E 139°52'1717.5
2015-Jan-26 16:33N 35°05' E 139°43'1414.2
2015-Jan-26 15:33N 35°20' E 139°43'1515.1
2015-Jan-26 14:33N 35°34' E 139°49'3 0.3
2015-Jan-26 02:32N 35°36' E 139°47'6 5.9
2015-Jan-26 01:33N 35°33' E 139°53'0 0.0
2015-Jan-25 21:23N 35°33' E 139°53'0 0.0
2015-Jan-25 17:20N 35°33' E 139°53'0 0.0
2015-Jan-25 16:29N 35°33' E 139°53'0 0.0
2015-Jan-25 15:29N 35°33' E 139°53'0 0.0
2015-Jan-25 14:32N 35°33' E 139°53'0 0.0
2015-Jan-25 11:28N 35°33' E 139°53'0 0.0
2015-Jan-25 10:16N 35°33' E 139°53'0 0.0
2015-Jan-25 09:11N 35°33' E 139°53'3 4.7
2015-Jan-25 08:33N 35°31' E 139°54'1414.5
2015-Jan-25 07:33N 35°19' E 139°44'1514.8
2015-Jan-25 06:33N 35°04' E 139°45'1612.8
2015-Jan-25 05:20N 34°54' E 139°60'  
2015-Jan-22 17:32N 34°52' E 140°01'1514.7
2015-Jan-22 16:33N 34°56' E 139°44'1918.7
2015-Jan-22 15:33N 35°14' E 139°46'1212.1
2015-Jan-22 14:34N 35°26' E 139°45'1211.6
2015-Jan-22 13:33N 35°38' E 139°46'0 0.0
2015-Jan-22 08:19N 35°38' E 139°46'810.5
2015-Jan-22 07:32N 35°32' E 139°52'1414.4
2015-Jan-22 06:33N 35°19' E 139°44'1414.2
2015-Jan-22 05:33N 35°05' E 139°45'1713.0
2015-Jan-22 04:14N 34°53' E 140°00'  
2015-Jan-19 18:32N 35°04' E 140°26'2118.2
2015-Jan-19 17:24N 34°53' E 140°05'1416.8
2015-Jan-19 16:33N 34°51' E 139°48'1717.5
2015-Jan-19 15:33N 35°08' E 139°43'1313.4
2015-Jan-19 14:34N 35°21' E 139°42'1514.5
2015-Jan-19 13:33N 35°35' E 139°48'0 0.0
2015-Jan-19 02:32N 35°35' E 139°48'4 1.8
2015-Jan-19 00:05N 35°34' E 139°53'0 0.0
2015-Jan-18 23:26N 35°34' E 139°53'0 0.0
2015-Jan-18 22:32N 35°34' E 139°53'0 0.0
2015-Jan-18 21:29N 35°34' E 139°53'0 0.0
2015-Jan-18 20:32N 35°34' E 139°53'0 0.0
2015-Jan-18 18:17N 35°34' E 139°53'0 0.0
2015-Jan-18 16:29N 35°34' E 139°53'0 0.0
2015-Jan-18 15:32N 35°34' E 139°53'0 0.0
2015-Jan-18 13:32N 35°34' E 139°53'0 0.0
2015-Jan-18 12:05N 35°34' E 139°53'0 0.0
2015-Jan-18 11:26N 35°34' E 139°53'0 0.0
2015-Jan-18 10:32N 35°34' E 139°53'0 0.0
2015-Jan-18 09:05N 35°34' E 139°53'2 3.0
2015-Jan-18 08:33N 35°32' E 139°53'1515.0
2015-Jan-18 07:33N 35°19' E 139°44'1514.6
2015-Jan-18 06:33N 35°05' E 139°46'1813.2
2015-Jan-18 05:13N 34°53' E 140°02'2018.0
2015-Jan-18 04:07N 35°04' E 140°22'  
Track history (hours):
 
Tides and Currents Weather Stations Pressure Air Temp Water Temp Dewpoint Dewpoint Depression Visibility Wind Speed Wind Dir Waves Ship Positions

Shin-oh Maru

Last reported at 2015-Jan-26 19:05 UTC. Time now 2015-Jan-27 12:26 UTC.
Position N 35°04' E 140°26'.

Length 161 m; draft 7 m.

Type: Ship (hazmat cat A). MMSI: 431100859.

Date/timePositionNaut miles runAvg speedWind from/ knotsBaromVisibWave heightAir tempDewpointWater temp
2015-Jan-26 19:05N 35°04' E 140°26'3120.5
2015-Jan-26 17:33N 34°50' E 139°52'1717.5
2015-Jan-26 16:33N 35°05' E 139°43'1414.2
2015-Jan-26 15:33N 35°20' E 139°43'1515.1
2015-Jan-26 14:33N 35°34' E 139°49'3 0.3
2015-Jan-26 02:32N 35°36' E 139°47'6 5.9
2015-Jan-26 01:33N 35°33' E 139°53'0 0.0
2015-Jan-25 21:23N 35°33' E 139°53'0 0.0
2015-Jan-25 17:20N 35°33' E 139°53'0 0.0
2015-Jan-25 16:29N 35°33' E 139°53'0 0.0
2015-Jan-25 15:29N 35°33' E 139°53'0 0.0
2015-Jan-25 14:32N 35°33' E 139°53'0 0.0
2015-Jan-25 11:28N 35°33' E 139°53'0 0.0
2015-Jan-25 10:16N 35°33' E 139°53'0 0.0
2015-Jan-25 09:11N 35°33' E 139°53'3 4.7
2015-Jan-25 08:33N 35°31' E 139°54'1414.5
2015-Jan-25 07:33N 35°19' E 139°44'1514.8
2015-Jan-25 06:33N 35°04' E 139°45'1612.8
2015-Jan-25 05:20N 34°54' E 139°60'  
2015-Jan-22 17:32N 34°52' E 140°01'1514.7
2015-Jan-22 16:33N 34°56' E 139°44'1918.7
2015-Jan-22 15:33N 35°14' E 139°46'1212.1
2015-Jan-22 14:34N 35°26' E 139°45'1211.6
2015-Jan-22 13:33N 35°38' E 139°46'0 0.0
2015-Jan-22 08:19N 35°38' E 139°46'810.5
2015-Jan-22 07:32N 35°32' E 139°52'1414.4
2015-Jan-22 06:33N 35°19' E 139°44'1414.2
2015-Jan-22 05:33N 35°05' E 139°45'1713.0
2015-Jan-22 04:14N 34°53' E 140°00'  
2015-Jan-19 18:32N 35°04' E 140°26'2118.2
2015-Jan-19 17:24N 34°53' E 140°05'1416.8
2015-Jan-19 16:33N 34°51' E 139°48'1717.5
2015-Jan-19 15:33N 35°08' E 139°43'1313.4
2015-Jan-19 14:34N 35°21' E 139°42'1514.5
2015-Jan-19 13:33N 35°35' E 139°48'0 0.0
2015-Jan-19 02:32N 35°35' E 139°48'4 1.8
2015-Jan-19 00:05N 35°34' E 139°53'0 0.0
2015-Jan-18 23:26N 35°34' E 139°53'0 0.0
2015-Jan-18 22:32N 35°34' E 139°53'0 0.0
2015-Jan-18 21:29N 35°34' E 139°53'0 0.0
2015-Jan-18 20:32N 35°34' E 139°53'0 0.0
2015-Jan-18 18:17N 35°34' E 139°53'0 0.0
2015-Jan-18 16:29N 35°34' E 139°53'0 0.0
2015-Jan-18 15:32N 35°34' E 139°53'0 0.0
2015-Jan-18 13:32N 35°34' E 139°53'0 0.0
2015-Jan-18 12:05N 35°34' E 139°53'0 0.0
2015-Jan-18 11:26N 35°34' E 139°53'0 0.0
2015-Jan-18 10:32N 35°34' E 139°53'0 0.0
2015-Jan-18 09:05N 35°34' E 139°53'2 3.0
2015-Jan-18 08:33N 35°32' E 139°53'1515.0
2015-Jan-18 07:33N 35°19' E 139°44'1514.6
2015-Jan-18 06:33N 35°05' E 139°46'1813.2
2015-Jan-18 05:13N 34°53' E 140°02'2018.0
2015-Jan-18 04:07N 35°04' E 140°22'  

Dump ship's entire track history